ěÝzenÝ letovÚho provozu ╚eskÚ republiky
Letiste: LKMT Aktualizace: 23.11.2020 19:30:24  UTC
 METAR LKMT 23.11. 19:30 ...
METAR LKMT 231930Z 22010KT 7000 OVC045 03/01 Q1029 NOSIG RMK REG QNH 1026=
 TAF LKMT 23.11. 17:00 ...
TAF LKMT 231700Z 2318/2500 22007KT 6000 NSC      BECMG 2319/2321 2000 MIFG SCT003      BECMG 2321/2323 0700 FZFG OVC003      TEMPO 2401/2409 0300 FZFG VV001      BECMG 2409/2411 22011KT 1700 BR BKN006      BECMG 2411/2413 CAVOK      TEMPO 2421/2500 4000 BR SCT012=